Time;durP1;ratioP1;P1;durP2;ratioP2;P2;SDS_P1;SDS_P2;PMS_P1;PMS_P2;Temp;Humidity;BMP_temperature;BMP_pressure;BME280_temperature;BME280_humidity;BME280_pressure;Samples;Min_cycle;Max_cycle;Signal;HPM_P1;HPM_P2
2023/01/26 00:00:43;;;;;;;19.73;13.73;;;0.80;99.90;;;;;;5005940;28;20666;-64
2023/01/26 00:03:09;;;;;;;22.73;12.53;;;0.90;99.90;;;;;;5008057;28;20226;-65
2023/01/26 00:05:38;;;;;;;18.60;11.13;;;0.80;99.90;;;;;;5009469;28;20206;-66
2023/01/26 00:08:04;;;;;;;18.20;11.20;;;0.80;99.90;;;;;;5009222;28;20272;-67
2023/01/26 00:10:29;;;;;;;19.70;11.73;;;0.80;99.90;;;;;;5008928;28;20953;-66
2023/01/26 00:12:55;;;;;;;23.10;12.83;;;0.80;99.90;;;;;;5007996;28;20207;-65
2023/01/26 00:15:21;;;;;;;20.87;11.57;;;0.70;99.90;;;;;;5009746;28;20682;-65
2023/01/26 00:17:47;;;;;;;46.53;27.97;;;0.80;99.90;;;;;;5006058;28;20216;-65
2023/01/26 00:20:12;;;;;;;30.93;18.70;;;0.80;99.90;;;;;;5006774;28;20203;-62
2023/01/26 00:22:38;;;;;;;24.67;13.37;;;0.90;99.90;;;;;;5006957;28;20271;-66
2023/01/26 00:25:04;;;;;;;20.37;12.43;;;0.90;99.90;;;;;;5006884;28;20214;-66
2023/01/26 00:27:31;;;;;;;22.93;13.47;;;1.00;99.90;;;;;;5004844;28;20202;-66
2023/01/26 00:29:57;;;;;;;23.40;13.93;;;1.00;99.90;;;;;;5008816;28;20688;-64
2023/01/26 00:32:22;;;;;;;22.27;12.93;;;1.00;99.90;;;;;;5006610;28;20201;-64
2023/01/26 00:34:48;;;;;;;27.57;14.33;;;0.90;99.90;;;;;;5007048;28;20554;-64
2023/01/26 00:37:13;;;;;;;33.27;18.77;;;0.90;99.90;;;;;;5004885;28;20264;-64
2023/01/26 00:39:39;;;;;;;23.47;13.70;;;0.90;99.90;;;;;;5006012;28;20225;-65
2023/01/26 00:42:12;;;;;;;45.87;24.77;;;1.00;99.90;;;;;;5006572;28;20222;-64
2023/01/26 00:44:39;;;;;;;22.20;13.07;;;1.00;99.90;;;;;;5015569;28;20206;-64
2023/01/26 00:47:06;;;;;;;21.30;12.40;;;0.90;99.90;;;;;;5006466;28;20214;-65
2023/01/26 00:49:32;;;;;;;22.53;14.20;;;0.80;99.90;;;;;;5003604;28;20305;-65
2023/01/26 00:51:57;;;;;;;22.10;12.10;;;0.90;99.90;;;;;;5017997;28;20769;-65
2023/01/26 00:54:23;;;;;;;22.73;12.93;;;0.90;99.90;;;;;;5013134;28;20200;-65
2023/01/26 00:56:48;;;;;;;19.20;12.67;;;0.90;99.90;;;;;;5003663;28;20285;-66
2023/01/26 00:59:13;;;;;;;17.77;11.37;;;0.90;99.90;;;;;;5014652;28;20197;-64
2023/01/26 01:01:39;;;;;;;23.93;13.63;;;0.90;99.90;;;;;;5004146;28;20250;-64
2023/01/26 01:04:04;;;;;;;40.80;22.80;;;0.90;99.90;;;;;;5009010;28;20194;-63
2023/01/26 01:06:30;;;;;;;26.37;16.03;;;0.80;99.90;;;;;;5004719;28;20202;-64
2023/01/26 01:08:55;;;;;;;24.73;13.17;;;0.80;99.90;;;;;;5011740;28;20206;-64
2023/01/26 01:11:21;;;;;;;37.00;22.23;;;0.80;99.90;;;;;;5006147;28;20351;-63
2023/01/26 01:13:46;;;;;;;26.23;15.60;;;0.90;99.90;;;;;;4998769;28;20207;-64
2023/01/26 01:16:14;;;;;;;29.63;16.83;;;0.90;99.90;;;;;;4996506;28;20305;-65
2023/01/26 01:18:40;;;;;;;27.63;14.47;;;1.00;99.90;;;;;;4998556;28;20304;-64
2023/01/26 01:21:15;;;;;;;33.60;20.10;;;1.10;99.90;;;;;;4999432;28;20953;-65
2023/01/26 01:23:41;;;;;;;36.87;18.27;;;1.00;99.90;;;;;;5008855;28;20211;-65
2023/01/26 01:26:07;;;;;;;27.43;16.30;;;1.10;99.90;;;;;;5001660;28;20622;-66
2023/01/26 01:28:34;;;;;;;20.03;12.20;;;1.10;99.90;;;;;;5008514;28;20210;-65
2023/01/26 01:31:06;;;;;;;52.37;34.80;;;1.10;99.90;;;;;;5004344;28;20288;-65
2023/01/26 01:33:32;;;;;;;28.27;14.63;;;1.10;99.90;;;;;;5005860;28;20559;-65
2023/01/26 01:36:00;;;;;;;31.70;18.57;;;1.20;99.90;;;;;;5005449;28;20202;-64
2023/01/26 01:38:26;;;;;;;27.63;17.30;;;1.20;99.90;;;;;;5005864;28;20230;-64
2023/01/26 01:40:53;;;;;;;23.13;15.00;;;1.10;99.90;;;;;;5008524;28;20294;-64
2023/01/26 01:43:18;;;;;;;51.03;29.93;;;1.10;99.90;;;;;;5005037;28;20268;-65
2023/01/26 01:45:49;;;;;;;44.13;24.20;;;1.00;99.90;;;;;;5008914;28;20793;-65
2023/01/26 01:48:28;;;;;;;41.33;25.17;;;1.10;99.90;;;;;;5009745;28;20194;-64
2023/01/26 01:50:57;;;;;;;40.13;18.70;;;1.10;99.90;;;;;;5013801;28;20198;-64
2023/01/26 01:53:30;;;;;;;34.93;18.17;;;1.10;99.90;;;;;;5008217;28;20207;-64
2023/01/26 01:56:02;;;;;;;45.47;25.93;;;1.00;99.90;;;;;;5008269;28;20209;-65
2023/01/26 01:58:30;;;;;;;63.43;37.33;;;1.00;99.90;;;;;;5011214;28;20225;-65
2023/01/26 02:00:57;;;;;;;23.93;15.57;;;1.10;99.90;;;;;;5011444;28;20228;-66
2023/01/26 02:03:24;;;;;;;24.03;13.67;;;1.10;99.90;;;;;;5012406;28;20203;-65
2023/01/26 02:06:00;;;;;;;29.20;14.43;;;1.00;99.90;;;;;;5001545;28;20206;-68
2023/01/26 02:08:35;;;;;;;23.73;13.70;;;1.00;99.90;;;;;;5007842;28;20198;-65
2023/01/26 02:11:05;;;;;;;29.93;18.77;;;0.90;99.90;;;;;;5015579;28;20715;-65
2023/01/26 02:13:33;;;;;;;22.13;15.27;;;0.80;99.90;;;;;;5014509;28;20609;-65
2023/01/26 02:15:59;;;;;;;32.40;15.37;;;0.80;99.90;;;;;;5013898;28;20217;-64
2023/01/26 02:18:24;;;;;;;26.70;14.93;;;0.80;99.90;;;;;;5001393;28;20200;-64
2023/01/26 02:21:08;;;;;;;28.20;16.87;;;0.80;99.90;;;;;;5002136;28;20229;-65
2023/01/26 02:23:49;;;;;;;22.90;13.43;;;0.70;99.90;;;;;;4998765;28;20242;-64
2023/01/26 02:26:19;;;;;;;24.53;13.77;;;0.70;99.90;;;;;;5013967;28;20760;-64
2023/01/26 02:28:46;;;;;;;26.20;16.03;;;0.70;99.90;;;;;;5013368;28;20201;-64
2023/01/26 02:31:12;;;;;;;27.10;14.87;;;0.80;99.90;;;;;;5001411;28;20208;-64
2023/01/26 02:33:39;;;;;;;25.23;13.77;;;0.70;99.90;;;;;;4997478;28;20239;-65
2023/01/26 02:36:06;;;;;;;23.17;13.50;;;0.70;99.90;;;;;;4997790;28;20206;-65
2023/01/26 02:38:41;;;;;;;31.53;14.70;;;0.60;99.90;;;;;;5001455;28;20248;-65
2023/01/26 02:42:37;;;;;;;25.67;14.80;;;0.70;99.90;;;;;;5000680;28;20314;-65
2023/01/26 02:43:59;;;;;;;27.40;13.20;;;0.70;99.90;;;;;;4996491;28;20285;-65
2023/01/26 02:46:24;;;;;;;26.13;14.33;;;0.70;99.90;;;;;;5001857;28;20197;-64
2023/01/26 02:51:34;;;;;;;21.33;13.80;;;0.60;99.90;;;;;;5011292;28;20214;-65
2023/01/26 02:53:59;;;;;;;22.80;13.03;;;0.60;99.90;;;;;;5011300;28;20204;-65
2023/01/26 02:56:25;;;;;;;26.37;14.37;;;0.60;99.90;;;;;;5013824;28;20196;-65
2023/01/26 02:58:50;;;;;;;23.77;14.37;;;0.60;99.90;;;;;;5013657;28;20640;-64
2023/01/26 03:01:16;;;;;;;22.93;14.43;;;0.50;99.90;;;;;;4997262;28;20207;-64
2023/01/26 03:03:41;;;;;;;20.00;11.97;;;0.50;99.90;;;;;;4999226;28;20288;-64
2023/01/26 03:06:11;;;;;;;17.80;11.33;;;0.50;99.90;;;;;;5001129;28;20722;-65
2023/01/26 03:08:37;;;;;;;22.30;13.73;;;0.40;99.90;;;;;;5004266;28;20237;-65
2023/01/26 03:11:04;;;;;;;23.43;13.77;;;0.50;99.90;;;;;;5007033;28;20202;-65
2023/01/26 03:13:29;;;;;;;23.73;14.03;;;0.50;99.90;;;;;;5006348;28;20209;-65
2023/01/26 03:15:55;;;;;;;23.53;12.47;;;0.50;99.90;;;;;;5004176;28;20204;-64
2023/01/26 03:29:29;;;;;;;17.60;11.47;;;0.60;99.90;;;;;;5006057;28;20301;-65
2023/01/26 03:31:55;;;;;;;33.20;20.43;;;0.60;99.90;;;;;;5015865;28;20734;-65
2023/01/26 03:34:21;;;;;;;22.23;13.27;;;0.70;99.90;;;;;;5011244;28;20288;-64
2023/01/26 03:36:48;;;;;;;18.53;12.27;;;0.80;99.90;;;;;;5013788;28;20293;-63
2023/01/26 03:41:06;;;;;;;23.10;12.47;;;0.80;99.90;;;;;;5017893;28;20296;-64
2023/01/26 03:58:29;;;;;;;16.40;10.10;;;0.60;99.90;;;;;;5008150;28;20230;-65
2023/01/26 04:00:55;;;;;;;17.03;11.10;;;0.60;99.90;;;;;;5016749;28;20285;-64
2023/01/26 04:08:48;;;;;;;17.50;10.90;;;0.70;99.90;;;;;;5008931;28;20287;-64
2023/01/26 04:11:14;;;;;;;19.53;11.43;;;0.70;99.90;;;;;;5015537;28;21004;-65
2023/01/26 04:21:52;;;;;;;16.90;11.67;;;0.70;99.90;;;;;;5015923;28;20268;-63
2023/01/26 04:24:20;;;;;;;19.67;13.07;;;0.90;99.90;;;;;;5016129;28;20205;-66
2023/01/26 04:26:46;;;;;;;22.83;12.20;;;0.80;99.90;;;;;;5011082;28;20214;-61
2023/01/26 04:29:13;;;;;;;22.53;12.80;;;0.70;99.90;;;;;;5016265;28;20238;-64
2023/01/26 04:31:40;;;;;;;29.23;14.40;;;0.80;99.90;;;;;;5015884;28;20731;-65
2023/01/26 04:34:09;;;;;;;18.20;11.57;;;0.70;99.90;;;;;;5011771;28;20205;-67
2023/01/26 04:36:35;;;;;;;22.00;11.90;;;0.70;99.90;;;;;;5013099;28;20303;-65
2023/01/26 04:39:00;;;;;;;19.73;12.83;;;0.70;99.90;;;;;;5011204;28;20207;-65
2023/01/26 04:41:28;;;;;;;20.97;11.87;;;0.70;99.90;;;;;;5010763;28;22973;-65
2023/01/26 04:43:53;;;;;;;19.53;11.73;;;0.70;99.90;;;;;;5017972;28;20240;-64
2023/01/26 04:46:19;;;;;;;22.90;12.90;;;0.60;99.90;;;;;;5017783;28;20213;-64
2023/01/26 04:48:44;;;;;;;20.90;12.47;;;0.70;99.90;;;;;;4999394;28;20664;-65
2023/01/26 04:51:15;;;;;;;20.53;11.23;;;0.70;99.90;;;;;;5003457;28;20206;-65
2023/01/26 04:53:41;;;;;;;18.97;11.90;;;0.60;99.90;;;;;;5007445;28;20271;-66
2023/01/26 04:56:13;;;;;;;25.20;16.07;;;0.60;99.90;;;;;;5017376;28;20197;-64
2023/01/26 04:58:38;;;;;;;17.13;11.70;;;0.60;99.90;;;;;;5013323;28;20210;-66
2023/01/26 05:01:04;;;;;;;20.37;12.27;;;0.60;99.90;;;;;;5012208;28;20645;-65
2023/01/26 05:03:29;;;;;;;17.50;10.83;;;0.60;99.90;;;;;;5006500;28;20276;-65
2023/01/26 05:05:55;;;;;;;19.00;10.67;;;0.50;99.90;;;;;;5006217;28;20214;-64
2023/01/26 05:08:21;;;;;;;20.77;12.03;;;0.60;99.90;;;;;;5006082;28;20664;-64
2023/01/26 05:10:47;;;;;;;16.17;11.13;;;0.60;99.90;;;;;;5003993;28;20370;-65
2023/01/26 05:13:13;;;;;;;18.13;10.33;;;0.70;99.90;;;;;;5004682;28;20297;-66
2023/01/26 05:15:39;;;;;;;18.03;11.03;;;0.60;99.90;;;;;;5009603;28;20209;-65
2023/01/26 05:18:06;;;;;;;14.87;10.33;;;0.60;99.90;;;;;;5008268;28;20205;-65
2023/01/26 05:20:32;;;;;;;18.83;12.00;;;0.60;99.90;;;;;;5004540;28;20757;-65
2023/01/26 05:22:57;;;;;;;23.50;11.80;;;0.50;99.90;;;;;;5006635;28;20221;-65
2023/01/26 05:25:24;;;;;;;18.77;11.60;;;0.50;99.90;;;;;;5005459;28;20564;-64
2023/01/26 05:27:49;;;;;;;18.23;11.83;;;0.60;99.90;;;;;;5010737;28;20205;-64
2023/01/26 05:30:15;;;;;;;15.83;10.63;;;0.60;99.90;;;;;;5004360;28;20204;-63
2023/01/26 05:32:41;;;;;;;23.23;10.53;;;0.60;99.90;;;;;;5005739;28;21020;-63
2023/01/26 05:35:07;;;;;;;16.83;10.53;;;0.60;99.90;;;;;;5005682;28;20224;-63
2023/01/26 05:37:33;;;;;;;17.90;12.43;;;0.70;99.90;;;;;;5012179;28;20289;-63
2023/01/26 05:39:58;;;;;;;18.93;11.70;;;0.60;99.90;;;;;;5004741;28;20289;-64
2023/01/26 05:42:25;;;;;;;18.50;11.23;;;0.60;99.90;;;;;;5007411;28;20272;-63
2023/01/26 05:44:51;;;;;;;19.23;10.67;;;0.60;99.90;;;;;;5007263;28;20785;-63
2023/01/26 05:47:16;;;;;;;16.43;10.17;;;0.60;99.90;;;;;;5004922;28;20196;-63
2023/01/26 05:49:42;;;;;;;18.27;10.20;;;0.60;99.90;;;;;;5006873;28;20272;-63
2023/01/26 05:52:14;;;;;;;15.53;8.83;;;0.60;99.90;;;;;;5011979;28;20201;-64
2023/01/26 05:54:39;;;;;;;16.43;10.23;;;0.60;99.90;;;;;;5008492;28;20210;-65
2023/01/26 05:57:05;;;;;;;15.30;9.50;;;0.60;99.90;;;;;;5000944;28;20619;-66
2023/01/26 05:59:30;;;;;;;17.67;10.17;;;0.60;99.90;;;;;;4997519;28;20289;-65
2023/01/26 06:01:56;;;;;;;17.17;11.27;;;0.60;99.90;;;;;;4998759;28;20219;-66
2023/01/26 06:04:22;;;;;;;18.27;10.33;;;0.70;99.90;;;;;;5006922;28;20691;-66
2023/01/26 06:06:47;;;;;;;19.47;11.07;;;0.70;99.90;;;;;;5002822;28;20197;-66
2023/01/26 06:09:13;;;;;;;22.17;11.93;;;0.70;99.90;;;;;;4997315;28;20603;-67
2023/01/26 06:11:38;;;;;;;19.77;11.13;;;0.70;99.90;;;;;;4997574;28;20786;-63
2023/01/26 06:14:04;;;;;;;18.83;11.73;;;0.70;99.90;;;;;;4997542;28;20264;-64
2023/01/26 06:16:29;;;;;;;21.07;11.60;;;0.70;99.90;;;;;;5002138;28;20207;-66
2023/01/26 06:18:55;;;;;;;18.37;10.87;;;0.70;99.90;;;;;;4996921;28;20210;-66
2023/01/26 06:21:21;;;;;;;18.83;11.30;;;0.70;99.90;;;;;;4996906;28;20234;-67
2023/01/26 06:23:46;;;;;;;17.47;9.73;;;0.70;99.90;;;;;;5008304;28;20245;-65
2023/01/26 06:26:11;;;;;;;21.17;12.20;;;0.60;99.90;;;;;;5010474;28;20288;-65
2023/01/26 06:28:37;;;;;;;19.77;11.47;;;0.50;99.90;;;;;;4998349;28;20206;-66
2023/01/26 06:31:05;;;;;;;20.37;10.63;;;0.60;99.90;;;;;;4998637;28;20231;-65
2023/01/26 06:33:33;;;;;;;18.50;11.17;;;0.50;99.90;;;;;;5012011;28;20212;-66
2023/01/26 06:36:03;;;;;;;20.73;12.27;;;0.40;99.90;;;;;;5013499;28;20638;-66
2023/01/26 06:38:29;;;;;;;19.67;11.17;;;0.50;99.90;;;;;;4997342;28;20222;-69
2023/01/26 06:41:02;;;;;;;21.93;11.90;;;0.50;99.90;;;;;;4997383;28;20700;-66
2023/01/26 06:43:29;;;;;;;20.27;10.77;;;0.40;99.90;;;;;;5002548;28;20700;-65
2023/01/26 06:45:58;;;;;;;20.93;9.60;;;0.40;99.90;;;;;;5003425;28;20193;-66
2023/01/26 06:48:25;;;;;;;26.73;10.73;;;0.40;99.90;;;;;;5014349;28;20205;-64
2023/01/26 06:50:51;;;;;;;23.30;12.13;;;0.40;99.90;;;;;;5013785;28;20264;-66
2023/01/26 06:53:32;;;;;;;18.23;11.87;;;0.40;99.90;;;;;;5008483;28;20688;-64
2023/01/26 06:55:58;;;;;;;17.17;10.90;;;0.40;99.90;;;;;;5015825;28;20231;-66
2023/01/26 06:58:23;;;;;;;16.37;10.70;;;0.30;99.90;;;;;;5011909;28;20653;-66
2023/01/26 07:00:51;;;;;;;17.83;9.77;;;0.30;99.90;;;;;;4993604;28;20231;-66
2023/01/26 07:03:16;;;;;;;14.33;8.97;;;0.20;99.90;;;;;;5007175;28;20197;-65
2023/01/26 07:05:41;;;;;;;17.07;9.40;;;0.30;99.90;;;;;;5018725;28;20631;-65
2023/01/26 07:08:07;;;;;;;14.33;9.57;;;0.20;99.90;;;;;;5011611;28;20228;-65
2023/01/26 07:10:37;;;;;;;17.00;9.37;;;0.10;99.90;;;;;;5000809;28;20194;-63
2023/01/26 07:13:04;;;;;;;14.87;9.50;;;0.10;99.90;;;;;;5014197;28;20689;-63
2023/01/26 07:15:29;;;;;;;14.07;8.73;;;0.10;99.90;;;;;;5012690;28;20208;-66
2023/01/26 07:17:58;;;;;;;13.23;7.43;;;0.10;99.90;;;;;;5019317;28;20232;-64
2023/01/26 07:20:24;;;;;;;14.60;8.80;;;0.10;99.90;;;;;;5017261;28;20220;-65
2023/01/26 07:22:50;;;;;;;14.33;8.87;;;0.00;99.90;;;;;;5004771;28;20239;-64
2023/01/26 07:25:16;;;;;;;12.60;7.83;;;0.00;99.90;;;;;;5014812;28;20236;-65
2023/01/26 07:27:42;;;;;;;11.60;7.67;;;0.00;99.90;;;;;;5019260;28;20281;-66
2023/01/26 07:30:09;;;;;;;12.23;7.03;;;0.00;99.90;;;;;;5011684;28;20193;-65
2023/01/26 07:32:35;;;;;;;14.00;8.37;;;-0.10;99.90;;;;;;5017146;28;20307;-65
2023/01/26 07:35:00;;;;;;;15.17;8.13;;;0.00;99.90;;;;;;5015517;28;20287;-67
2023/01/26 07:37:29;;;;;;;12.20;8.03;;;0.10;99.90;;;;;;5017657;28;20715;-64
2023/01/26 07:39:55;;;;;;;14.37;8.87;;;0.10;99.90;;;;;;5013640;28;20255;-65
2023/01/26 07:42:20;;;;;;;11.93;8.10;;;0.10;99.90;;;;;;5010866;28;20221;-65
2023/01/26 07:44:46;;;;;;;11.17;7.43;;;0.10;99.90;;;;;;5004211;28;20296;-64
2023/01/26 07:47:11;;;;;;;14.33;9.47;;;0.20;99.90;;;;;;5003115;28;20192;-64
2023/01/26 07:49:37;;;;;;;14.23;8.37;;;0.20;99.90;;;;;;5004405;28;20205;-65
2023/01/26 07:52:04;;;;;;;16.23;11.23;;;0.20;99.90;;;;;;5007964;28;20225;-65
2023/01/26 07:54:29;;;;;;;15.60;9.20;;;0.20;99.90;;;;;;5007628;28;20705;-65
2023/01/26 07:56:55;;;;;;;17.43;8.23;;;0.30;99.90;;;;;;5010718;28;20352;-65
2023/01/26 07:59:21;;;;;;;14.10;8.97;;;0.30;99.90;;;;;;5004820;28;20272;-64
2023/01/26 08:01:50;;;;;;;16.20;7.93;;;0.30;99.90;;;;;;5009512;28;20249;-65
2023/01/26 08:04:16;;;;;;;13.87;8.67;;;0.20;99.90;;;;;;5012176;28;20220;-65
2023/01/26 08:06:42;;;;;;;12.43;8.17;;;0.10;99.90;;;;;;5009876;28;20310;-62
2023/01/26 08:09:07;;;;;;;13.47;8.27;;;0.00;99.90;;;;;;5013690;28;20251;-66
2023/01/26 08:11:33;;;;;;;15.77;8.97;;;0.00;99.90;;;;;;5009639;28;20209;-65
2023/01/26 08:13:59;;;;;;;11.97;8.67;;;-0.10;99.90;;;;;;5004425;28;20212;-66
2023/01/26 08:16:25;;;;;;;10.93;7.80;;;-0.10;99.90;;;;;;5004994;28;20510;-65
2023/01/26 08:18:50;;;;;;;12.37;8.63;;;-0.10;99.90;;;;;;5018462;28;20209;-66
2023/01/26 08:21:17;;;;;;;12.67;8.13;;;-0.10;99.90;;;;;;5002973;28;20238;-65
2023/01/26 08:23:46;;;;;;;10.73;7.43;;;-0.10;99.90;;;;;;5007845;28;20199;-63
2023/01/26 08:26:12;;;;;;;10.87;7.40;;;0.00;99.90;;;;;;5001784;28;20706;-70
2023/01/26 08:28:39;;;;;;;8.20;6.87;;;0.10;99.90;;;;;;5008451;28;20224;-64
2023/01/26 08:31:07;;;;;;;8.33;6.57;;;0.10;99.90;;;;;;5007787;28;20198;-61
2023/01/26 08:33:33;;;;;;;11.90;7.07;;;0.20;99.90;;;;;;4997308;28;20277;-61
2023/01/26 08:36:03;;;;;;;8.47;6.60;;;0.20;99.90;;;;;;4997073;28;20202;-61
2023/01/26 08:38:32;;;;;;;10.20;7.30;;;0.10;99.90;;;;;;5006532;28;20202;-62
2023/01/26 08:41:02;;;;;;;8.57;6.97;;;-0.20;99.90;;;;;;5008860;28;20269;-60
2023/01/26 08:43:28;;;;;;;10.70;7.67;;;-0.30;99.90;;;;;;5011709;28;20244;-61
2023/01/26 08:45:54;;;;;;;10.13;7.17;;;-0.20;99.90;;;;;;5001394;28;20245;-60
2023/01/26 08:48:19;;;;;;;10.37;7.27;;;-0.20;99.90;;;;;;4999201;28;20230;-61
2023/01/26 08:50:45;;;;;;;11.90;8.13;;;-0.10;99.90;;;;;;4997853;28;20194;-75
2023/01/26 08:53:11;;;;;;;10.53;7.80;;;-0.10;99.90;;;;;;5006965;28;20218;-67
2023/01/26 08:55:37;;;;;;;11.40;8.97;;;-0.20;99.90;;;;;;5007390;28;20221;-64
2023/01/26 08:58:02;;;;;;;10.50;8.47;;;-0.10;99.90;;;;;;4999943;28;20295;-67
2023/01/26 09:00:28;;;;;;;11.37;7.57;;;-0.20;99.90;;;;;;5004462;28;20233;-65
2023/01/26 09:03:01;;;;;;;12.93;8.30;;;-0.20;99.90;;;;;;5010275;28;20225;-64
2023/01/26 09:05:29;;;;;;;11.17;7.83;;;-0.20;99.90;;;;;;5008687;28;20208;-65
2023/01/26 09:07:55;;;;;;;12.03;8.90;;;-0.20;99.90;;;;;;5010287;28;20807;-66
2023/01/26 09:10:20;;;;;;;13.70;8.67;;;-0.20;99.90;;;;;;5008764;28;20355;-65
2023/01/26 09:12:46;;;;;;;14.70;9.07;;;-0.20;99.90;;;;;;5012713;28;20205;-67
2023/01/26 09:15:11;;;;;;;9.73;7.00;;;-0.20;99.90;;;;;;5009453;28;20204;-64
2023/01/26 09:17:37;;;;;;;8.70;6.70;;;-0.20;99.90;;;;;;5004403;28;20794;-65
2023/01/26 09:20:04;;;;;;;9.10;7.40;;;-0.10;99.90;;;;;;5010000;28;20202;-66
2023/01/26 09:22:30;;;;;;;10.73;8.37;;;-0.20;99.90;;;;;;5012476;28;20235;-65
2023/01/26 09:24:55;;;;;;;14.37;9.57;;;-0.20;99.90;;;;;;5006755;28;20209;-65
2023/01/26 09:27:21;;;;;;;11.80;8.80;;;-0.10;99.90;;;;;;5005092;28;20202;-64
2023/01/26 09:29:47;;;;;;;14.60;8.93;;;0.00;99.90;;;;;;5005550;28;20284;-63
2023/01/26 09:32:12;;;;;;;13.07;8.60;;;0.00;99.90;;;;;;5009883;28;20275;-76
2023/01/26 09:34:38;;;;;;;12.57;9.27;;;0.10;99.90;;;;;;5009429;28;20206;-63
2023/01/26 09:37:08;;;;;;;13.87;9.10;;;0.10;99.90;;;;;;5005581;28;20287;-62
2023/01/26 09:39:34;;;;;;;13.30;8.57;;;0.10;99.90;;;;;;5011049;28;20209;-61
2023/01/26 09:42:29;;;;;;;13.27;9.73;;;0.00;99.90;;;;;;5007974;28;20208;-62
2023/01/26 09:45:11;;;;;;;10.83;8.40;;;0.10;99.90;;;;;;5008695;28;20210;-62
2023/01/26 09:48:02;;;;;;;13.80;9.90;;;0.20;99.90;;;;;;5009919;28;20697;-63
2023/01/26 09:50:35;;;;;;;12.47;8.90;;;0.40;99.90;;;;;;5003015;28;20667;-62
2023/01/26 09:53:15;;;;;;;10.90;8.80;;;0.30;99.90;;;;;;5011471;28;20209;-62
2023/01/26 09:55:43;;;;;;;14.37;10.53;;;0.20;99.90;;;;;;5014237;28;20225;-64
2023/01/26 09:58:16;;;;;;;14.23;9.83;;;0.20;99.90;;;;;;5005259;28;20296;-66
2023/01/26 10:00:57;;;;;;;11.60;7.33;;;0.30;99.90;;;;;;5006213;28;20571;-68
2023/01/26 10:03:39;;;;;;;11.57;8.47;;;0.20;99.90;;;;;;5004340;28;20233;-66
2023/01/26 10:06:31;;;;;;;13.77;9.47;;;0.10;99.90;;;;;;5005517;28;20198;-69
2023/01/26 10:09:04;;;;;;;13.60;8.73;;;0.00;99.90;;;;;;5008030;28;20272;-68
2023/01/26 10:11:37;;;;;;;11.87;8.30;;;0.00;99.90;;;;;;5005521;28;20204;-65
2023/01/26 10:14:13;;;;;;;13.40;8.80;;;0.20;99.90;;;;;;5005662;28;20444;-67
2023/01/26 10:16:42;;;;;;;14.77;10.03;;;0.20;99.90;;;;;;5011230;28;20233;-66
2023/01/26 10:19:41;;;;;;;13.20;7.90;;;0.30;99.90;;;;;;5007188;28;20204;-67
2023/01/26 10:22:14;;;;;;;12.63;8.40;;;0.20;99.90;;;;;;5008927;28;20260;-68
2023/01/26 10:24:50;;;;;;;12.17;8.70;;;0.20;99.90;;;;;;5010956;28;20334;-68
2023/01/26 10:27:17;;;;;;;12.77;8.30;;;0.10;99.90;;;;;;5004712;28;20197;-68
2023/01/26 10:29:43;;;;;;;11.07;8.50;;;0.10;99.90;;;;;;5006170;28;20203;-67
2023/01/26 10:32:14;;;;;;;13.20;9.50;;;-0.10;99.90;;;;;;5005427;28;20572;-66
2023/01/26 10:34:40;;;;;;;13.00;9.13;;;-0.10;99.90;;;;;;5008008;28;20224;-66
2023/01/26 10:37:22;;;;;;;11.10;8.37;;;-0.10;99.90;;;;;;5010513;28;20204;-66
2023/01/26 10:40:06;;;;;;;14.93;9.13;;;-0.10;99.90;;;;;;5010347;28;20196;-67
2023/01/26 10:42:33;;;;;;;14.33;7.63;;;-0.10;99.90;;;;;;5008434;28;20205;-66
2023/01/26 10:45:01;;;;;;;13.20;8.77;;;-0.10;99.90;;;;;;5010457;28;20210;-66
2023/01/26 10:47:27;;;;;;;16.63;11.10;;;-0.10;99.90;;;;;;5013811;28;20202;-66
2023/01/26 10:50:14;;;;;;;14.37;9.20;;;0.20;99.90;;;;;;5008356;28;20614;-68
2023/01/26 10:52:56;;;;;;;12.00;8.37;;;0.20;99.90;;;;;;5012855;28;20317;-66
2023/01/26 10:55:22;;;;;;;12.97;9.37;;;0.30;99.90;;;;;;5013992;28;20205;-66
2023/01/26 10:57:47;;;;;;;12.83;9.57;;;0.30;99.90;;;;;;5016078;28;20721;-62
2023/01/26 11:00:22;;;;;;;13.10;9.50;;;0.30;99.90;;;;;;5012736;28;20563;-58
2023/01/26 11:02:53;;;;;;;13.70;7.73;;;0.40;99.90;;;;;;5014351;28;20210;-71
2023/01/26 11:05:23;;;;;;;15.17;10.40;;;0.60;99.90;;;;;;5011171;28;20216;-67
2023/01/26 11:07:54;;;;;;;11.03;8.30;;;0.80;99.90;;;;;;5008657;28;20683;-69
2023/01/26 11:10:31;;;;;;;12.80;9.37;;;0.90;99.90;;;;;;5011432;28;20201;-67
2023/01/26 11:13:16;;;;;;;12.17;8.43;;;0.80;99.90;;;;;;5008630;28;20286;-67
2023/01/26 11:15:47;;;;;;;13.37;8.63;;;0.60;99.90;;;;;;5015771;28;20242;-68
2023/01/26 11:18:42;;;;;;;11.90;8.90;;;0.60;99.90;;;;;;5008283;28;20255;-67
2023/01/26 11:21:49;;;;;;;11.57;8.83;;;0.50;99.90;;;;;;5014787;28;20232;-65
2023/01/26 11:24:33;;;;;;;13.07;8.17;;;0.30;99.90;;;;;;5012879;28;20203;-65
2023/01/26 11:27:21;;;;;;;10.93;8.43;;;0.40;99.90;;;;;;5006444;28;20209;-65
2023/01/26 11:30:02;;;;;;;12.03;7.63;;;0.30;99.90;;;;;;5009085;28;20201;-65
2023/01/26 11:32:58;;;;;;;10.80;8.03;;;0.30;99.90;;;;;;5009341;28;20210;-64
2023/01/26 11:35:30;;;;;;;11.13;8.00;;;0.40;99.90;;;;;;5007552;28;20204;-64
2023/01/26 11:38:21;;;;;;;12.63;8.90;;;0.20;99.90;;;;;;5003987;28;20201;-65
2023/01/26 11:40:54;;;;;;;15.47;9.43;;;0.30;99.90;;;;;;5007517;28;20202;-64
2023/01/26 11:43:31;;;;;;;9.87;8.40;;;0.50;99.90;;;;;;5009322;28;20387;-64
2023/01/26 11:46:10;;;;;;;11.53;8.90;;;0.50;99.90;;;;;;5006951;28;20200;-65
2023/01/26 11:48:55;;;;;;;14.53;10.00;;;0.40;99.90;;;;;;5008355;28;20572;-65
2023/01/26 11:51:42;;;;;;;12.57;10.47;;;0.50;99.90;;;;;;5006359;28;20257;-65
2023/01/26 11:54:28;;;;;;;12.73;8.93;;;0.40;99.90;;;;;;5015905;28;20571;-63
2023/01/26 11:57:16;;;;;;;15.17;9.73;;;0.40;99.90;;;;;;5014865;28;20231;-64
2023/01/26 11:59:47;;;;;;;9.93;7.87;;;0.40;99.90;;;;;;5013622;28;20212;-64
2023/01/26 12:02:35;;;;;;;9.37;8.17;;;0.40;99.90;;;;;;5002277;28;20216;-64
2023/01/26 12:05:23;;;;;;;10.07;8.00;;;0.50;99.90;;;;;;5003350;28;20222;-63
2023/01/26 12:07:55;;;;;;;11.70;8.40;;;0.60;99.90;;;;;;4988733;28;20214;-64
2023/01/26 12:10:38;;;;;;;13.57;9.43;;;0.60;99.90;;;;;;5012372;28;20190;-64
2023/01/26 12:13:11;;;;;;;8.90;7.57;;;0.90;99.90;;;;;;5015827;28;20236;-64
2023/01/26 12:15:41;;;;;;;9.57;6.33;;;0.90;99.90;;;;;;5015280;28;20198;-64
2023/01/26 12:18:07;;;;;;;10.67;7.07;;;1.00;99.90;;;;;;5013996;28;20311;-67
2023/01/26 12:20:39;;;;;;;7.50;6.23;;;1.20;99.90;;;;;;5017703;28;20224;-67
2023/01/26 12:23:07;;;;;;;7.57;5.40;;;1.10;99.90;;;;;;5012906;28;20304;-71
2023/01/26 12:25:41;;;;;;;6.23;5.30;;;1.10;99.90;;;;;;5004454;28;20220;-66
2023/01/26 12:28:09;;;;;;;7.90;6.20;;;1.10;99.90;;;;;;5010207;28;20592;-68
2023/01/26 12:30:37;;;;;;;9.70;7.43;;;1.10;99.90;;;;;;5002827;28;20198;-70
2023/01/26 12:33:02;;;;;;;7.43;6.53;;;1.10;99.90;;;;;;5004458;28;20575;-69
2023/01/26 12:35:42;;;;;;;10.70;7.10;;;1.10;99.90;;;;;;5010604;28;20197;-68
2023/01/26 12:38:27;;;;;;;9.97;6.80;;;1.10;99.90;;;;;;5005100;28;20300;-68
2023/01/26 12:41:09;;;;;;;10.23;7.33;;;1.00;99.90;;;;;;4961950;28;20303;-59
2023/01/26 12:43:55;;;;;;;10.07;7.67;;;0.90;99.90;;;;;;5004954;28;20221;-60
2023/01/26 12:46:23;;;;;;;7.37;5.30;;;0.90;99.90;;;;;;5009415;28;20327;-59
2023/01/26 12:48:56;;;;;;;8.73;6.00;;;0.90;99.90;;;;;;5009354;28;20666;-59
2023/01/26 12:51:29;;;;;;;8.00;6.77;;;0.80;99.90;;;;;;5008528;28;20232;-59
2023/01/26 12:54:05;;;;;;;7.73;5.93;;;1.10;99.90;;;;;;5007799;28;20230;-62
2023/01/26 12:56:36;;;;;;;7.50;5.97;;;1.30;99.90;;;;;;5005555;28;20204;-62
2023/01/26 12:59:15;;;;;;;8.13;5.70;;;1.10;99.90;;;;;;5006830;28;20546;-59
2023/01/26 13:01:42;;;;;;;7.17;6.20;;;0.90;99.90;;;;;;5007255;28;20196;-59
2023/01/26 13:04:13;;;;;;;10.03;7.13;;;0.90;99.90;;;;;;5006262;28;20212;-59
2023/01/26 13:06:39;;;;;;;8.20;6.30;;;0.90;99.90;;;;;;5008638;28;20216;-59
2023/01/26 13:09:25;;;;;;;6.77;5.70;;;1.00;99.90;;;;;;5007919;28;20750;-59
2023/01/26 13:12:00;;;;;;;8.00;6.93;;;0.90;99.90;;;;;;5008749;28;20231;-59
2023/01/26 13:14:40;;;;;;;11.77;8.83;;;0.80;99.90;;;;;;5009309;28;20205;-68
2023/01/26 13:17:15;;;;;;;10.30;6.47;;;0.80;99.90;;;;;;5012371;28;21193;-66
2023/01/26 13:19:40;;;;;;;9.57;7.23;;;0.80;99.90;;;;;;5008779;28;20258;-66
2023/01/26 13:22:26;;;;;;;8.23;6.87;;;0.70;99.90;;;;;;5003218;28;20230;-65
2023/01/26 13:24:54;;;;;;;8.10;6.67;;;0.80;99.90;;;;;;5011795;28;20193;-66
2023/01/26 13:27:32;;;;;;;10.17;6.87;;;0.80;99.90;;;;;;4998873;28;20225;-67
2023/01/26 13:29:58;;;;;;;10.80;7.83;;;0.80;99.90;;;;;;4998446;28;20663;-66
2023/01/26 13:32:23;;;;;;;9.63;7.13;;;0.70;99.90;;;;;;5004868;28;20198;-67
2023/01/26 13:34:57;;;;;;;11.17;7.30;;;0.80;99.90;;;;;;5007659;28;20806;-65
2023/01/26 13:37:32;;;;;;;9.07;6.13;;;0.80;99.90;;;;;;5003900;28;20233;-64
2023/01/26 13:40:32;;;;;;;8.60;6.57;;;0.80;99.90;;;;;;5009009;28;20201;-65